createdAt,value
2022-11-25T00:01:12.543Z,70.59
2022-11-25T00:03:39.942Z,70.63
2022-11-25T00:06:18.034Z,70.41
2022-11-25T00:08:46.506Z,70.68
2022-11-25T00:11:14.588Z,71.05
2022-11-25T00:13:41.936Z,71.07
2022-11-25T00:16:13.410Z,71.06
2022-11-25T00:18:40.045Z,71.09
2022-11-25T00:21:08.738Z,71.42
2022-11-25T00:23:36.599Z,71.22
2022-11-25T00:26:14.816Z,71.63
2022-11-25T00:28:46.220Z,71.65
2022-11-25T00:31:39.779Z,71.72
2022-11-25T00:34:07.219Z,71.75
2022-11-25T00:36:35.927Z,71.91
2022-11-25T00:39:05.417Z,72.43
2022-11-25T00:41:50.463Z,72.15
2022-11-25T00:44:38.115Z,72.63
2022-11-25T00:47:14.189Z,72.89
2022-11-25T00:49:42.862Z,73.20
2022-11-25T00:52:12.405Z,73.00
2022-11-25T00:54:38.861Z,73.32
2022-11-25T00:57:05.407Z,73.19
2022-11-25T00:59:31.766Z,73.16
2022-11-25T01:01:58.273Z,73.80
2022-11-25T01:04:24.872Z,73.65
2022-11-25T01:06:51.255Z,73.43
2022-11-25T01:09:17.634Z,73.74
2022-11-25T01:11:44.346Z,73.83
2022-11-25T01:14:11.331Z,73.51
2022-11-25T01:16:37.958Z,73.54
2022-11-25T01:19:05.585Z,73.72
2022-11-25T01:21:34.253Z,73.95
2022-11-25T01:24:02.932Z,74.45
2022-11-25T01:26:30.293Z,73.81
2022-11-25T01:28:59.507Z,73.43
2022-11-25T01:31:27.980Z,74.51
2022-11-25T01:34:04.395Z,74.26
2022-11-25T01:36:31.094Z,74.40
2022-11-25T01:38:59.505Z,74.33
2022-11-25T01:41:28.611Z,74.13
2022-11-25T01:44:05.522Z,73.94
2022-11-25T01:47:30.793Z,73.89
2022-11-25T01:50:03.695Z,74.07
2022-11-25T01:52:36.742Z,74.08
2022-11-25T01:55:11.061Z,74.49
2022-11-25T01:57:45.968Z,74.73
2022-11-25T02:00:13.226Z,74.33
2022-11-25T02:02:39.870Z,74.61
2022-11-25T02:05:15.650Z,73.95
2022-11-25T02:07:45.161Z,74.15
2022-11-25T02:10:15.580Z,74.62
2022-11-25T02:12:44.965Z,74.61
2022-11-25T02:15:13.716Z,74.47
2022-11-25T02:17:40.643Z,75.06
2022-11-25T02:20:10.871Z,75.13
2022-11-25T02:22:56.928Z,75.48
2022-11-25T02:25:31.079Z,74.89
2022-11-25T02:28:05.948Z,75.56
2022-11-25T02:30:33.770Z,75.18
2022-11-25T02:33:00.938Z,75.28
2022-11-25T02:35:29.288Z,75.18
2022-11-25T02:38:00.329Z,75.30
2022-11-25T02:40:28.608Z,74.80
2022-11-25T02:42:58.722Z,74.98
2022-11-25T02:45:35.476Z,75.42
2022-11-25T02:48:01.845Z,75.17
2022-11-25T02:50:28.196Z,75.48
2022-11-25T02:52:54.519Z,75.62
2022-11-25T02:55:20.982Z,75.78
2022-11-25T02:57:47.288Z,75.50
2022-11-25T03:00:14.206Z,75.68
2022-11-25T03:02:40.668Z,75.95
2022-11-25T03:05:07.262Z,76.06
2022-11-25T03:07:33.598Z,75.89
2022-11-25T03:10:00.036Z,76.30
2022-11-25T03:12:26.435Z,76.10
2022-11-25T03:14:52.814Z,76.42
2022-11-25T03:17:19.332Z,76.70
2022-11-25T03:19:45.759Z,76.19
2022-11-25T03:22:12.188Z,76.69
2022-11-25T03:24:38.689Z,76.38
2022-11-25T03:27:05.245Z,76.48
2022-11-25T03:29:31.783Z,76.72
2022-11-25T03:31:58.174Z,76.85
2022-11-25T03:34:24.536Z,76.73
2022-11-25T03:36:50.948Z,76.96
2022-11-25T03:39:17.319Z,77.92
2022-11-25T03:41:43.686Z,77.54
2022-11-25T03:44:10.008Z,77.96
2022-11-25T03:46:36.345Z,78.51
2022-11-25T03:49:02.966Z,78.17
2022-11-25T03:51:29.472Z,78.32
2022-11-25T03:53:55.851Z,78.39
2022-11-25T03:56:22.189Z,78.42
2022-11-25T03:58:48.638Z,78.33
2022-11-25T04:01:15.033Z,81.60
2022-11-25T04:03:41.511Z,81.73
2022-11-25T04:06:07.895Z,82.26
2022-11-25T04:08:34.209Z,84.24
2022-11-25T04:11:00.695Z,84.31
2022-11-25T04:13:27.054Z,87.06
2022-11-25T04:15:53.471Z,86.92
2022-11-25T04:18:20.385Z,87.40
2022-11-25T04:20:47.017Z,86.63
2022-11-25T04:23:14.461Z,85.47
2022-11-25T04:25:40.934Z,85.23
2022-11-25T04:28:07.249Z,86.17
2022-11-25T04:30:34.123Z,86.59
2022-11-25T04:33:01.837Z,86.12
2022-11-25T04:35:28.202Z,85.27
2022-11-25T04:37:54.561Z,85.43
2022-11-25T04:40:20.921Z,86.16
2022-11-25T04:42:47.479Z,86.67
2022-11-25T04:45:24.044Z,87.59
2022-11-25T04:47:51.466Z,87.85
2022-11-25T04:50:21.056Z,87.79
2022-11-25T04:52:47.380Z,87.00
2022-11-25T04:55:13.798Z,86.95
2022-11-25T04:57:40.299Z,87.00
2022-11-25T05:00:07.925Z,87.08
2022-11-25T05:02:34.353Z,87.74
2022-11-25T05:05:01.374Z,87.50
2022-11-25T05:07:28.923Z,87.00
2022-11-25T05:09:56.216Z,88.13
2022-11-25T05:12:25.932Z,88.12
2022-11-25T05:14:52.747Z,88.48
2022-11-25T05:17:22.381Z,88.56
2022-11-25T05:19:49.698Z,88.36
2022-11-25T05:22:18.238Z,87.92
2022-11-25T05:24:44.705Z,88.11
2022-11-25T05:27:11.685Z,87.97
2022-11-25T05:29:38.181Z,88.13
2022-11-25T05:32:05.209Z,88.29
2022-11-25T05:34:31.806Z,88.24
2022-11-25T05:36:58.607Z,87.79
2022-11-25T05:39:25.431Z,88.06
2022-11-25T05:41:51.908Z,87.36
2022-11-25T05:44:22.723Z,87.72
2022-11-25T05:46:50.235Z,88.05
2022-11-25T05:49:17.604Z,88.25
2022-11-25T05:51:44.244Z,87.48
2022-11-25T05:54:10.881Z,87.79
2022-11-25T05:56:37.333Z,87.80
2022-11-25T05:59:04.796Z,87.60
2022-11-25T06:01:31.790Z,87.85
2022-11-25T06:04:04.873Z,87.52
2022-11-25T06:06:32.118Z,87.55
2022-11-25T06:08:58.786Z,87.71
2022-11-25T06:11:28.082Z,87.25
2022-11-25T06:13:57.396Z,87.55
2022-11-25T06:16:24.760Z,87.73
2022-11-25T06:18:51.455Z,88.05
2022-11-25T06:21:18.014Z,87.83
2022-11-25T06:23:47.090Z,87.92
2022-11-25T06:26:19.513Z,87.83
2022-11-25T06:28:46.433Z,87.61
2022-11-25T06:31:18.597Z,87.49
2022-11-25T06:33:49.832Z,87.79
2022-11-25T06:36:17.508Z,88.18
2022-11-25T06:38:45.195Z,87.96
2022-11-25T06:41:11.588Z,88.08
2022-11-25T06:43:38.077Z,88.18
2022-11-25T06:46:12.805Z,88.34
2022-11-25T06:48:40.308Z,88.42
2022-11-25T06:51:16.369Z,88.36
2022-11-25T06:53:42.728Z,88.38
2022-11-25T06:56:15.942Z,87.84
2022-11-25T06:58:43.976Z,88.02
2022-11-25T07:01:19.081Z,88.32
2022-11-25T07:03:47.105Z,88.25
2022-11-25T07:06:15.578Z,88.71
2022-11-25T07:08:42.533Z,88.57
2022-11-25T07:11:17.102Z,88.13
2022-11-25T07:13:43.838Z,88.01
2022-11-25T07:16:11.826Z,88.27
2022-11-25T07:18:39.528Z,88.75
2022-11-25T07:21:11.412Z,88.52
2022-11-25T07:23:38.522Z,88.16
2022-11-25T07:26:21.529Z,87.97
2022-11-25T07:28:49.387Z,87.91
2022-11-25T07:31:28.688Z,88.10
2022-11-25T07:34:00.749Z,88.21
2022-11-25T07:36:28.275Z,88.50
2022-11-25T07:38:54.879Z,87.82
2022-11-25T07:41:23.952Z,88.69
2022-11-25T07:43:52.708Z,89.00
2022-11-25T07:46:26.302Z,88.69
2022-11-25T07:48:54.260Z,88.86
2022-11-25T07:51:27.152Z,88.78
2022-11-25T07:53:55.224Z,89.21
2022-11-25T07:56:21.759Z,89.31
2022-11-25T07:58:48.274Z,89.86
2022-11-25T08:01:17.033Z,89.92
2022-11-25T08:03:44.527Z,89.62
2022-11-25T08:06:16.629Z,89.49
2022-11-25T08:08:44.055Z,90.92
2022-11-25T08:11:14.340Z,89.86
2022-11-25T08:13:41.110Z,89.37
2022-11-25T08:16:08.634Z,89.84
2022-11-25T08:18:35.106Z,89.67
2022-11-25T08:21:06.914Z,89.62
2022-11-25T08:23:34.397Z,89.35
2022-11-25T08:26:13.239Z,88.72
2022-11-25T08:28:41.363Z,89.20
2022-11-25T08:31:10.917Z,88.77
2022-11-25T08:33:37.718Z,89.25
2022-11-25T08:36:04.944Z,88.35
2022-11-25T08:38:31.655Z,88.19
2022-11-25T08:40:58.377Z,88.57
2022-11-25T08:43:29.419Z,88.19
2022-11-25T08:45:56.378Z,87.82
2022-11-25T08:48:22.788Z,87.31
2022-11-25T08:50:52.643Z,87.67
2022-11-25T08:53:21.115Z,87.17
2022-11-25T08:55:48.265Z,88.03
2022-11-25T08:58:14.626Z,87.84
2022-11-25T09:00:43.076Z,87.74
2022-11-25T09:03:10.500Z,87.42
2022-11-25T09:05:45.360Z,86.43
2022-11-25T09:08:12.438Z,86.54
2022-11-25T09:10:39.689Z,85.73
2022-11-25T09:13:06.463Z,87.13
2022-11-25T09:15:34.699Z,86.00
2022-11-25T09:18:03.752Z,85.47
2022-11-25T09:20:31.137Z,85.55
2022-11-25T09:23:00.120Z,85.75
2022-11-25T09:25:27.675Z,85.83
2022-11-25T09:27:55.546Z,85.52
2022-11-25T09:30:22.897Z,85.41
2022-11-25T09:32:51.691Z,84.86
2022-11-25T09:35:19.061Z,84.27
2022-11-25T09:37:45.663Z,84.22
2022-11-25T09:40:50.912Z,85.27
2022-11-25T09:43:46.189Z,84.11
2022-11-25T09:46:42.509Z,83.15
2022-11-25T09:49:40.562Z,82.66
2022-11-25T09:52:28.259Z,82.60
2022-11-25T09:55:11.421Z,82.27
2022-11-25T09:58:01.911Z,82.06
2022-11-25T10:00:38.562Z,82.79
2022-11-25T10:03:23.532Z,81.54
2022-11-25T10:06:08.188Z,81.25
2022-11-25T10:08:39.298Z,80.30
2022-11-25T10:11:48.047Z,79.65
2022-11-25T10:14:41.907Z,79.71
2022-11-25T10:17:28.840Z,79.04
2022-11-25T10:20:07.182Z,78.16
2022-11-25T10:22:36.375Z,77.90
2022-11-25T10:25:15.612Z,78.50
2022-11-25T10:27:44.645Z,77.40
2022-11-25T10:30:23.794Z,77.69
2022-11-25T10:33:00.762Z,76.88
2022-11-25T10:35:34.820Z,76.11
2022-11-25T10:38:05.440Z,76.65
2022-11-25T10:40:31.956Z,77.31
2022-11-25T10:43:01.000Z,75.18
2022-11-25T10:45:40.560Z,74.53
2022-11-25T10:48:18.340Z,74.78
2022-11-25T10:51:20.352Z,76.18
2022-11-25T10:54:14.699Z,74.28
2022-11-25T10:56:49.441Z,73.55
2022-11-25T10:59:31.269Z,72.74
2022-11-25T11:02:26.944Z,74.32
2022-11-25T11:04:57.728Z,74.56
2022-11-25T11:07:29.570Z,74.18
2022-11-25T11:10:15.513Z,73.34
2022-11-25T11:13:19.869Z,72.24
2022-11-25T11:15:54.889Z,72.37
2022-11-25T11:18:29.303Z,71.95
2022-11-25T11:20:57.340Z,72.33
2022-11-25T11:23:25.081Z,72.16
2022-11-25T11:26:28.696Z,71.21
2022-11-25T11:29:01.214Z,69.02
2022-11-25T11:31:33.271Z,68.57
2022-11-25T11:34:05.651Z,70.36
2022-11-25T11:37:12.319Z,70.16
2022-11-25T11:40:00.144Z,71.28
2022-11-25T11:42:41.438Z,71.52
2022-11-25T11:45:42.338Z,72.68
2022-11-25T11:48:39.298Z,72.99
2022-11-25T11:51:27.503Z,73.78
2022-11-25T11:54:18.050Z,72.74
2022-11-25T11:56:52.058Z,72.32
2022-11-25T11:59:46.914Z,72.53
2022-11-25T12:02:52.521Z,71.85
2022-11-25T12:05:22.045Z,72.24
2022-11-25T12:08:28.341Z,71.78
2022-11-25T12:10:58.137Z,71.06
2022-11-25T12:13:56.513Z,70.58
2022-11-25T12:16:32.333Z,69.62
2022-11-25T12:19:39.560Z,69.87
2022-11-25T12:22:32.270Z,69.83
2022-11-25T12:25:08.724Z,71.25
2022-11-25T12:28:10.361Z,70.40
2022-11-25T12:31:06.271Z,70.47
2022-11-25T12:33:44.125Z,69.76
2022-11-25T12:36:17.743Z,70.30
2022-11-25T12:38:53.423Z,69.92
2022-11-25T12:41:19.664Z,69.36
2022-11-25T12:43:48.959Z,69.07
2022-11-25T12:46:28.507Z,69.50
2022-11-25T12:48:58.194Z,68.13
2022-11-25T12:51:51.079Z,68.64
2022-11-25T12:54:54.675Z,67.38
2022-11-25T12:57:30.305Z,67.65
2022-11-25T13:00:46.556Z,67.02
2022-11-25T13:03:45.861Z,67.98
2022-11-25T13:06:22.664Z,67.51
2022-11-25T13:08:55.742Z,67.14
2022-11-25T13:11:31.664Z,66.95
2022-11-25T13:14:14.337Z,66.86
2022-11-25T13:16:45.412Z,66.83
2022-11-25T13:19:16.626Z,66.58
2022-11-25T13:22:18.218Z,67.23
2022-11-25T13:24:47.654Z,66.89
2022-11-25T13:27:35.907Z,66.42
2022-11-25T13:30:03.198Z,66.39
2022-11-25T13:32:35.221Z,66.71
2022-11-25T13:35:26.287Z,66.40
2022-11-25T13:37:53.410Z,66.28
2022-11-25T13:40:22.872Z,66.49
2022-11-25T13:42:53.314Z,66.34
2022-11-25T13:45:43.320Z,66.31
2022-11-25T13:48:21.237Z,65.81
2022-11-25T13:51:10.610Z,66.23
2022-11-25T13:53:39.827Z,66.42
2022-11-25T13:56:25.316Z,65.83
2022-11-25T13:59:12.222Z,65.45
2022-11-25T14:01:52.421Z,65.31
2022-11-25T14:04:43.026Z,66.20
2022-11-25T14:07:26.711Z,66.09
2022-11-25T14:10:54.829Z,65.99
2022-11-25T14:13:50.991Z,66.78
2022-11-25T14:16:35.625Z,65.74
2022-11-25T14:19:51.144Z,65.46
2022-11-25T14:22:30.900Z,66.03
2022-11-25T14:25:25.590Z,66.09
2022-11-25T14:28:03.923Z,66.00
2022-11-25T14:30:32.608Z,66.01
2022-11-25T14:33:03.652Z,66.52
2022-11-25T14:35:35.493Z,65.82
2022-11-25T14:38:13.515Z,66.37
2022-11-25T14:41:00.327Z,66.04
2022-11-25T14:43:28.856Z,66.50
2022-11-25T14:46:15.534Z,66.74
2022-11-25T14:48:43.722Z,66.93
2022-11-25T14:51:18.438Z,67.37
2022-11-25T14:53:50.449Z,67.17
2022-11-25T14:56:55.426Z,67.05
2022-11-25T14:59:22.080Z,66.92
2022-11-25T15:01:54.961Z,67.21
2022-11-25T15:04:24.325Z,66.72
2022-11-25T15:06:53.973Z,67.53
2022-11-25T15:09:29.324Z,67.79
2022-11-25T15:12:00.669Z,67.86
2022-11-25T15:14:27.028Z,68.11
2022-11-25T15:16:54.220Z,68.24
2022-11-25T15:19:25.297Z,68.58
2022-11-25T15:24:53.291Z,69.07
2022-11-25T15:27:28.671Z,68.54
2022-11-25T15:29:56.993Z,69.30
2022-11-25T15:32:29.799Z,69.30
2022-11-25T15:34:59.021Z,69.20
2022-11-25T15:37:25.985Z,69.17
2022-11-25T15:40:31.409Z,69.54
2022-11-25T15:43:04.339Z,69.60
2022-11-25T15:45:53.990Z,69.36
2022-11-25T15:48:38.403Z,69.31
2022-11-25T15:51:23.142Z,70.20
2022-11-25T15:53:56.386Z,70.84
2022-11-25T15:56:26.910Z,69.87
2022-11-25T15:58:58.636Z,70.06
2022-11-25T16:01:31.750Z,70.02
2022-11-25T16:04:19.833Z,70.12
2022-11-25T16:07:06.435Z,70.20
2022-11-25T16:10:02.154Z,70.48
2022-11-25T16:12:28.514Z,70.46
2022-11-25T16:14:54.856Z,71.01
2022-11-25T16:20:28.508Z,71.58
2022-11-25T16:22:56.127Z,71.82
2022-11-25T16:25:22.845Z,72.29
2022-11-25T16:27:49.386Z,72.85
2022-11-25T16:30:20.163Z,73.32
2022-11-25T16:32:46.576Z,73.13
2022-11-25T16:35:15.595Z,72.76
2022-11-25T16:37:47.199Z,73.75
2022-11-25T16:40:17.078Z,74.12
2022-11-25T16:42:49.142Z,74.31
2022-11-25T16:45:27.369Z,73.82
2022-11-25T16:47:54.436Z,73.47
2022-11-25T16:50:22.033Z,73.59
2022-11-25T16:52:49.697Z,74.22
2022-11-25T16:55:18.364Z,75.26
2022-11-25T16:57:46.933Z,74.99
2022-11-25T17:00:17.660Z,75.12
2022-11-25T17:02:44.844Z,74.71
2022-11-25T17:05:25.261Z,74.11
2022-11-25T17:07:53.581Z,74.76
2022-11-25T17:10:20.648Z,75.08
2022-11-25T17:12:47.648Z,75.26
2022-11-25T17:15:24.302Z,75.60
2022-11-25T17:17:51.094Z,75.50
2022-11-25T17:20:21.763Z,75.58
2022-11-25T17:22:49.076Z,75.02
2022-11-25T17:25:15.602Z,74.87
2022-11-25T17:27:42.810Z,75.24
2022-11-25T17:30:22.348Z,74.71
2022-11-25T17:33:02.757Z,74.48
2022-11-25T17:35:29.394Z,74.95
2022-11-25T17:37:57.954Z,74.33
2022-11-25T17:40:24.527Z,74.53
2022-11-25T17:42:52.564Z,74.71
2022-11-25T17:45:21.358Z,74.25
2022-11-25T17:47:48.170Z,74.68
2022-11-25T17:50:23.589Z,74.50
2022-11-25T17:52:51.544Z,74.63
2022-11-25T17:55:19.833Z,74.64
2022-11-25T17:57:48.303Z,74.57
2022-11-25T18:00:17.844Z,74.78
2022-11-25T18:02:44.279Z,75.29
2022-11-25T18:05:14.731Z,75.42
2022-11-25T18:07:43.770Z,75.56
2022-11-25T18:10:14.421Z,75.52
2022-11-25T18:12:42.709Z,76.03
2022-11-25T18:15:19.435Z,75.49
2022-11-25T18:17:47.003Z,76.04
2022-11-25T18:20:21.080Z,76.14
2022-11-25T18:22:47.814Z,76.50
2022-11-25T18:25:38.984Z,76.07
2022-11-25T18:28:05.602Z,76.00
2022-11-25T18:30:34.038Z,75.90
2022-11-25T18:33:01.552Z,76.10
2022-11-25T18:35:35.665Z,76.62
2022-11-25T18:38:02.722Z,76.16
2022-11-25T18:40:29.740Z,76.15
2022-11-25T18:43:00.480Z,76.37
2022-11-25T18:45:38.494Z,76.72
2022-11-25T18:48:17.315Z,77.56
2022-11-25T18:50:45.037Z,76.84
2022-11-25T18:53:11.796Z,76.55
2022-11-25T18:55:38.317Z,76.58
2022-11-25T18:58:15.283Z,76.91
2022-11-25T19:00:41.955Z,76.50
2022-11-25T19:03:17.406Z,77.27
2022-11-25T19:05:43.937Z,77.14
2022-11-25T19:08:10.413Z,77.35
2022-11-25T19:10:38.832Z,77.83
2022-11-25T19:13:08.739Z,77.37
2022-11-25T19:15:37.381Z,77.94
2022-11-25T19:18:06.348Z,77.81
2022-11-25T19:20:33.122Z,77.94
2022-11-25T19:23:11.639Z,78.08
2022-11-25T19:25:37.946Z,78.51
2022-11-25T19:28:04.493Z,78.75
2022-11-25T19:30:32.254Z,79.04
2022-11-25T19:33:01.164Z,78.50
2022-11-25T19:35:33.249Z,78.25
2022-11-25T19:37:59.613Z,78.78
2022-11-25T19:40:26.290Z,78.90
2022-11-25T19:42:52.673Z,78.95
2022-11-25T19:45:20.982Z,79.10
2022-11-25T19:47:50.449Z,79.10
2022-11-25T19:50:23.505Z,79.89
2022-11-25T19:52:50.758Z,80.25
2022-11-25T19:55:18.963Z,79.80
2022-11-25T19:57:45.760Z,79.65
2022-11-25T20:00:14.422Z,79.77
2022-11-25T20:02:42.332Z,79.29
2022-11-25T20:05:09.543Z,79.16
2022-11-25T20:07:36.443Z,79.92
2022-11-25T20:10:19.503Z,79.98
2022-11-25T20:12:45.927Z,79.93
2022-11-25T20:15:13.020Z,80.56
2022-11-25T20:17:43.075Z,80.53
2022-11-25T20:20:22.462Z,81.17
2022-11-25T20:23:08.952Z,81.37
2022-11-25T20:25:43.410Z,80.87
2022-11-25T20:28:22.856Z,80.50
2022-11-25T20:30:50.639Z,81.53
2022-11-25T20:33:24.079Z,81.26
2022-11-25T20:35:58.451Z,80.88
2022-11-25T20:38:27.581Z,81.28
2022-11-25T20:40:57.784Z,80.67
2022-11-25T20:43:34.424Z,81.81
2022-11-25T20:46:02.473Z,80.99
2022-11-25T20:48:29.925Z,81.19
2022-11-25T20:50:59.940Z,81.25
2022-11-25T20:53:27.987Z,81.75
2022-11-25T20:55:54.329Z,81.36
2022-11-25T20:58:25.242Z,81.01
2022-11-25T21:01:01.126Z,80.88
2022-11-25T21:03:27.521Z,81.03
2022-11-25T21:05:55.334Z,81.12
2022-11-25T21:08:24.245Z,81.96
2022-11-25T21:10:53.816Z,81.40
2022-11-25T21:13:26.417Z,81.65
2022-11-25T21:15:53.937Z,81.10
2022-11-25T21:18:21.440Z,81.09
2022-11-25T21:20:53.615Z,81.00
2022-11-25T21:23:22.691Z,80.82
2022-11-25T21:25:50.304Z,80.24
2022-11-25T21:28:20.329Z,80.32
2022-11-25T21:30:49.497Z,80.60
2022-11-25T21:33:16.407Z,80.34
2022-11-25T21:35:46.711Z,80.25
2022-11-25T21:38:27.241Z,79.99
2022-11-25T21:40:56.095Z,80.00
2022-11-25T21:43:40.532Z,79.58
2022-11-25T21:46:12.506Z,79.63
2022-11-25T21:48:39.951Z,79.35
2022-11-25T21:51:06.362Z,79.33
2022-11-25T21:53:37.157Z,79.07
2022-11-25T21:56:14.161Z,78.35
2022-11-25T21:58:40.731Z,78.62
2022-11-25T22:01:10.669Z,78.71
2022-11-25T22:03:37.056Z,79.25
2022-11-25T22:06:03.705Z,79.40
2022-11-25T22:08:30.385Z,79.07
2022-11-25T22:10:56.844Z,79.51
2022-11-25T22:13:30.101Z,79.73
2022-11-25T22:15:58.232Z,79.93
2022-11-25T22:18:34.401Z,80.58
2022-11-25T22:21:01.835Z,80.90
2022-11-25T22:23:30.768Z,81.13
2022-11-25T22:25:57.196Z,81.37
2022-11-25T22:28:30.711Z,81.19
2022-11-25T22:31:04.823Z,81.93
2022-11-25T22:33:33.647Z,81.64
2022-11-25T22:36:00.658Z,81.37
2022-11-25T22:38:29.174Z,82.22
2022-11-25T22:40:59.283Z,83.11
2022-11-25T22:43:29.612Z,82.35
2022-11-25T22:45:56.788Z,82.46
2022-11-25T22:48:30.875Z,82.35
2022-11-25T22:51:00.083Z,82.61
2022-11-25T22:53:26.435Z,82.15
2022-11-25T22:55:56.735Z,82.37
2022-11-25T22:58:24.056Z,82.39
2022-11-25T23:00:51.482Z,82.41
2022-11-25T23:03:26.677Z,82.95
2022-11-25T23:05:54.253Z,82.45
2022-11-25T23:08:28.979Z,82.55
2022-11-25T23:10:56.147Z,82.98
2022-11-25T23:13:26.427Z,82.69
2022-11-25T23:15:59.963Z,83.38
2022-11-25T23:18:34.106Z,83.91
2022-11-25T23:21:05.560Z,83.79
2022-11-25T23:23:35.244Z,83.20
2022-11-25T23:26:02.014Z,82.87
2022-11-25T23:28:28.414Z,82.73
2022-11-25T23:31:00.702Z,83.48
2022-11-25T23:33:32.835Z,84.10
2022-11-25T23:36:02.536Z,84.38
2022-11-25T23:38:31.306Z,83.81
2022-11-25T23:40:57.840Z,83.93
2022-11-25T23:43:26.719Z,83.95
2022-11-25T23:45:56.014Z,84.01
2022-11-25T23:48:27.718Z,84.66
2022-11-25T23:50:58.116Z,84.66
2022-11-25T23:53:29.206Z,84.33
2022-11-25T23:55:55.839Z,84.70
2022-11-25T23:58:25.739Z,85.00
